sensor_id;sensor_type;location;lat;lon;timestamp;temperature;humidity
6256;DHT22;3161;48.794;9.784;2024-01-06T00:00:29;6.70;99.90
6256;DHT22;3161;48.794;9.784;2024-01-06T00:02:57;6.70;99.90
6256;DHT22;3161;48.794;9.784;2024-01-06T00:05:24;6.70;99.90
6256;DHT22;3161;48.794;9.784;2024-01-06T00:07:52;6.70;99.90
6256;DHT22;3161;48.794;9.784;2024-01-06T00:10:19;6.60;99.90
6256;DHT22;3161;48.794;9.784;2024-01-06T00:12:47;6.60;99.90
6256;DHT22;3161;48.794;9.784;2024-01-06T00:15:15;6.60;99.90
6256;DHT22;3161;48.794;9.784;2024-01-06T00:17:42;6.60;99.90
6256;DHT22;3161;48.794;9.784;2024-01-06T00:20:10;6.60;99.90
6256;DHT22;3161;48.794;9.784;2024-01-06T00:22:38;6.60;99.90
6256;DHT22;3161;48.794;9.784;2024-01-06T00:25:06;6.60;99.90
6256;DHT22;3161;48.794;9.784;2024-01-06T00:27:34;6.50;99.90
6256;DHT22;3161;48.794;9.784;2024-01-06T00:30:01;6.50;99.90
6256;DHT22;3161;48.794;9.784;2024-01-06T00:32:29;6.50;99.90
6256;DHT22;3161;48.794;9.784;2024-01-06T00:34:57;6.50;99.90
6256;DHT22;3161;48.794;9.784;2024-01-06T00:37:24;6.50;99.90
6256;DHT22;3161;48.794;9.784;2024-01-06T00:39:52;6.50;99.90
6256;DHT22;3161;48.794;9.784;2024-01-06T00:42:20;6.50;99.90
6256;DHT22;3161;48.794;9.784;2024-01-06T00:44:47;6.50;99.90
6256;DHT22;3161;48.794;9.784;2024-01-06T00:47:15;6.50;99.90
6256;DHT22;3161;48.794;9.784;2024-01-06T00:49:42;6.50;99.90
6256;DHT22;3161;48.794;9.784;2024-01-06T00:52:10;6.50;99.90
6256;DHT22;3161;48.794;9.784;2024-01-06T00:54:37;6.50;99.90
6256;DHT22;3161;48.794;9.784;2024-01-06T00:57:05;6.50;99.90
6256;DHT22;3161;48.794;9.784;2024-01-06T00:59:32;6.50;99.90
6256;DHT22;3161;48.794;9.784;2024-01-06T01:02:00;6.50;99.90
6256;DHT22;3161;48.794;9.784;2024-01-06T01:04:27;6.50;99.90
6256;DHT22;3161;48.794;9.784;2024-01-06T01:06:55;6.50;99.90
6256;DHT22;3161;48.794;9.784;2024-01-06T01:09:22;6.50;99.90
6256;DHT22;3161;48.794;9.784;2024-01-06T01:11:50;6.50;99.90
6256;DHT22;3161;48.794;9.784;2024-01-06T01:14:17;6.50;99.90
6256;DHT22;3161;48.794;9.784;2024-01-06T01:16:45;6.50;99.90
6256;DHT22;3161;48.794;9.784;2024-01-06T01:19:13;6.50;99.90
6256;DHT22;3161;48.794;9.784;2024-01-06T01:21:41;6.50;99.90
6256;DHT22;3161;48.794;9.784;2024-01-06T01:24:08;6.50;99.90
6256;DHT22;3161;48.794;9.784;2024-01-06T01:26:36;6.50;99.90
6256;DHT22;3161;48.794;9.784;2024-01-06T01:29:03;6.50;99.90
6256;DHT22;3161;48.794;9.784;2024-01-06T01:31:31;6.50;99.90
6256;DHT22;3161;48.794;9.784;2024-01-06T01:33:58;6.50;99.90
6256;DHT22;3161;48.794;9.784;2024-01-06T01:36:26;6.50;99.90
6256;DHT22;3161;48.794;9.784;2024-01-06T01:38:53;6.50;99.90
6256;DHT22;3161;48.794;9.784;2024-01-06T01:41:20;6.50;99.90
6256;DHT22;3161;48.794;9.784;2024-01-06T01:43:48;6.50;99.90
6256;DHT22;3161;48.794;9.784;2024-01-06T01:46:17;6.50;99.90
6256;DHT22;3161;48.794;9.784;2024-01-06T01:48:45;6.50;99.90
6256;DHT22;3161;48.794;9.784;2024-01-06T01:51:13;6.50;99.90
6256;DHT22;3161;48.794;9.784;2024-01-06T01:53:41;6.50;99.90
6256;DHT22;3161;48.794;9.784;2024-01-06T01:56:09;6.50;99.90
6256;DHT22;3161;48.794;9.784;2024-01-06T01:58:37;6.50;99.90
6256;DHT22;3161;48.794;9.784;2024-01-06T02:01:05;6.50;99.90
6256;DHT22;3161;48.794;9.784;2024-01-06T02:03:33;6.50;99.90
6256;DHT22;3161;48.794;9.784;2024-01-06T02:06:01;6.50;99.90
6256;DHT22;3161;48.794;9.784;2024-01-06T02:08:29;6.50;99.90
6256;DHT22;3161;48.794;9.784;2024-01-06T02:10:56;6.50;99.90
6256;DHT22;3161;48.794;9.784;2024-01-06T02:13:24;6.50;99.90
6256;DHT22;3161;48.794;9.784;2024-01-06T02:15:53;6.50;99.90
6256;DHT22;3161;48.794;9.784;2024-01-06T02:18:22;6.50;99.90
6256;DHT22;3161;48.794;9.784;2024-01-06T02:20:50;6.50;99.90
6256;DHT22;3161;48.794;9.784;2024-01-06T02:23:18;6.40;99.90
6256;DHT22;3161;48.794;9.784;2024-01-06T02:25:46;6.40;99.90
6256;DHT22;3161;48.794;9.784;2024-01-06T02:28:13;6.40;99.90
6256;DHT22;3161;48.794;9.784;2024-01-06T02:30:41;6.40;99.90
6256;DHT22;3161;48.794;9.784;2024-01-06T02:33:08;6.40;99.90
6256;DHT22;3161;48.794;9.784;2024-01-06T02:35:36;6.40;99.90
6256;DHT22;3161;48.794;9.784;2024-01-06T02:38:04;6.40;99.90
6256;DHT22;3161;48.794;9.784;2024-01-06T02:40:31;6.40;99.90
6256;DHT22;3161;48.794;9.784;2024-01-06T02:42:59;6.40;99.90
6256;DHT22;3161;48.794;9.784;2024-01-06T02:45:27;6.40;99.90
6256;DHT22;3161;48.794;9.784;2024-01-06T02:47:54;6.40;99.90
6256;DHT22;3161;48.794;9.784;2024-01-06T02:50:22;6.40;99.90
6256;DHT22;3161;48.794;9.784;2024-01-06T02:52:49;6.40;99.90
6256;DHT22;3161;48.794;9.784;2024-01-06T02:55:17;6.40;99.90
6256;DHT22;3161;48.794;9.784;2024-01-06T02:57:44;6.40;99.90
6256;DHT22;3161;48.794;9.784;2024-01-06T03:00:12;6.40;99.90
6256;DHT22;3161;48.794;9.784;2024-01-06T03:02:40;6.40;99.90
6256;DHT22;3161;48.794;9.784;2024-01-06T03:05:10;6.30;99.90
6256;DHT22;3161;48.794;9.784;2024-01-06T03:07:37;6.30;99.90
6256;DHT22;3161;48.794;9.784;2024-01-06T03:10:05;6.30;99.90
6256;DHT22;3161;48.794;9.784;2024-01-06T03:12:33;6.30;99.90
6256;DHT22;3161;48.794;9.784;2024-01-06T03:15:00;6.30;99.90
6256;DHT22;3161;48.794;9.784;2024-01-06T03:17:28;6.30;99.90
6256;DHT22;3161;48.794;9.784;2024-01-06T03:19:56;6.30;99.90
6256;DHT22;3161;48.794;9.784;2024-01-06T03:22:24;6.30;99.90
6256;DHT22;3161;48.794;9.784;2024-01-06T03:24:51;6.30;99.90
6256;DHT22;3161;48.794;9.784;2024-01-06T03:27:19;6.30;99.90
6256;DHT22;3161;48.794;9.784;2024-01-06T03:29:46;6.30;99.90
6256;DHT22;3161;48.794;9.784;2024-01-06T03:32:13;6.30;99.90
6256;DHT22;3161;48.794;9.784;2024-01-06T03:34:41;6.30;99.90
6256;DHT22;3161;48.794;9.784;2024-01-06T03:37:09;6.30;99.90
6256;DHT22;3161;48.794;9.784;2024-01-06T03:39:36;6.30;99.90
6256;DHT22;3161;48.794;9.784;2024-01-06T03:42:05;6.20;99.90
6256;DHT22;3161;48.794;9.784;2024-01-06T03:44:32;6.20;99.90
6256;DHT22;3161;48.794;9.784;2024-01-06T03:47:00;6.20;99.90
6256;DHT22;3161;48.794;9.784;2024-01-06T03:49:27;6.20;99.90
6256;DHT22;3161;48.794;9.784;2024-01-06T03:51:55;6.20;99.90
6256;DHT22;3161;48.794;9.784;2024-01-06T03:54:22;6.20;99.90
6256;DHT22;3161;48.794;9.784;2024-01-06T03:56:50;6.20;99.90
6256;DHT22;3161;48.794;9.784;2024-01-06T03:59:18;6.10;99.90
6256;DHT22;3161;48.794;9.784;2024-01-06T04:01:45;6.10;99.90
6256;DHT22;3161;48.794;9.784;2024-01-06T04:04:13;6.10;99.90
6256;DHT22;3161;48.794;9.784;2024-01-06T04:06:40;6.10;99.90
6256;DHT22;3161;48.794;9.784;2024-01-06T04:09:08;6.10;99.90
6256;DHT22;3161;48.794;9.784;2024-01-06T04:11:36;6.00;99.90
6256;DHT22;3161;48.794;9.784;2024-01-06T04:14:03;6.00;99.90
6256;DHT22;3161;48.794;9.784;2024-01-06T04:16:31;5.90;99.90
6256;DHT22;3161;48.794;9.784;2024-01-06T04:18:58;5.90;99.90
6256;DHT22;3161;48.794;9.784;2024-01-06T04:21:26;5.90;99.90
6256;DHT22;3161;48.794;9.784;2024-01-06T04:23:53;5.90;99.90
6256;DHT22;3161;48.794;9.784;2024-01-06T04:26:22;5.90;99.90
6256;DHT22;3161;48.794;9.784;2024-01-06T04:28:50;5.90;99.90
6256;DHT22;3161;48.794;9.784;2024-01-06T04:31:17;5.90;99.90
6256;DHT22;3161;48.794;9.784;2024-01-06T04:33:44;5.80;99.90
6256;DHT22;3161;48.794;9.784;2024-01-06T04:36:12;5.80;99.90
6256;DHT22;3161;48.794;9.784;2024-01-06T04:38:40;5.80;99.90
6256;DHT22;3161;48.794;9.784;2024-01-06T04:41:07;5.80;99.90
6256;DHT22;3161;48.794;9.784;2024-01-06T04:43:35;5.80;99.90
6256;DHT22;3161;48.794;9.784;2024-01-06T04:46:02;5.80;99.90
6256;DHT22;3161;48.794;9.784;2024-01-06T04:48:30;5.80;99.90
6256;DHT22;3161;48.794;9.784;2024-01-06T04:50:57;5.80;99.90
6256;DHT22;3161;48.794;9.784;2024-01-06T04:53:25;5.80;99.90
6256;DHT22;3161;48.794;9.784;2024-01-06T04:55:52;5.80;99.90
6256;DHT22;3161;48.794;9.784;2024-01-06T04:58:20;5.70;99.90
6256;DHT22;3161;48.794;9.784;2024-01-06T05:00:47;5.70;99.90
6256;DHT22;3161;48.794;9.784;2024-01-06T05:03:17;5.70;99.90
6256;DHT22;3161;48.794;9.784;2024-01-06T05:05:44;5.70;99.90
6256;DHT22;3161;48.794;9.784;2024-01-06T05:08:12;5.70;99.90
6256;DHT22;3161;48.794;9.784;2024-01-06T05:10:40;5.70;99.90
6256;DHT22;3161;48.794;9.784;2024-01-06T05:13:07;5.70;99.90
6256;DHT22;3161;48.794;9.784;2024-01-06T05:15:35;5.70;99.90
6256;DHT22;3161;48.794;9.784;2024-01-06T05:18:02;5.70;99.90
6256;DHT22;3161;48.794;9.784;2024-01-06T05:20:30;5.70;99.90
6256;DHT22;3161;48.794;9.784;2024-01-06T05:22:58;5.70;99.90
6256;DHT22;3161;48.794;9.784;2024-01-06T05:25:25;5.70;99.90
6256;DHT22;3161;48.794;9.784;2024-01-06T05:27:53;5.60;99.90
6256;DHT22;3161;48.794;9.784;2024-01-06T05:30:20;5.70;99.90
6256;DHT22;3161;48.794;9.784;2024-01-06T05:32:48;5.70;99.90
6256;DHT22;3161;48.794;9.784;2024-01-06T05:35:17;5.70;99.90
6256;DHT22;3161;48.794;9.784;2024-01-06T05:37:44;5.70;99.90
6256;DHT22;3161;48.794;9.784;2024-01-06T05:40:12;5.70;99.90
6256;DHT22;3161;48.794;9.784;2024-01-06T05:42:39;5.70;99.90
6256;DHT22;3161;48.794;9.784;2024-01-06T05:45:11;5.70;99.90
6256;DHT22;3161;48.794;9.784;2024-01-06T05:47:41;5.70;99.90
6256;DHT22;3161;48.794;9.784;2024-01-06T05:50:09;5.70;99.90
6256;DHT22;3161;48.794;9.784;2024-01-06T05:52:37;5.70;99.90
6256;DHT22;3161;48.794;9.784;2024-01-06T05:55:06;5.70;99.90
6256;DHT22;3161;48.794;9.784;2024-01-06T05:57:33;5.70;99.90
6256;DHT22;3161;48.794;9.784;2024-01-06T06:00:01;5.70;99.90
6256;DHT22;3161;48.794;9.784;2024-01-06T06:02:28;5.70;99.90
6256;DHT22;3161;48.794;9.784;2024-01-06T06:04:56;5.70;99.90
6256;DHT22;3161;48.794;9.784;2024-01-06T06:07:24;5.70;99.90
6256;DHT22;3161;48.794;9.784;2024-01-06T06:09:51;5.70;99.90
6256;DHT22;3161;48.794;9.784;2024-01-06T06:12:19;5.70;99.90
6256;DHT22;3161;48.794;9.784;2024-01-06T06:14:47;5.70;99.90
6256;DHT22;3161;48.794;9.784;2024-01-06T06:17:14;5.70;99.90
6256;DHT22;3161;48.794;9.784;2024-01-06T06:19:42;5.70;99.90
6256;DHT22;3161;48.794;9.784;2024-01-06T06:22:09;5.70;99.90
6256;DHT22;3161;48.794;9.784;2024-01-06T06:24:37;5.70;99.90
6256;DHT22;3161;48.794;9.784;2024-01-06T06:27:05;5.70;99.90
6256;DHT22;3161;48.794;9.784;2024-01-06T06:29:32;5.70;99.90
6256;DHT22;3161;48.794;9.784;2024-01-06T06:32:00;5.70;99.90
6256;DHT22;3161;48.794;9.784;2024-01-06T06:34:28;5.70;99.90
6256;DHT22;3161;48.794;9.784;2024-01-06T06:36:55;5.70;99.90
6256;DHT22;3161;48.794;9.784;2024-01-06T06:39:23;5.80;99.90
6256;DHT22;3161;48.794;9.784;2024-01-06T06:41:50;5.80;99.90
6256;DHT22;3161;48.794;9.784;2024-01-06T06:44:18;5.80;99.90
6256;DHT22;3161;48.794;9.784;2024-01-06T06:46:45;5.80;99.90
6256;DHT22;3161;48.794;9.784;2024-01-06T06:49:13;5.80;99.90
6256;DHT22;3161;48.794;9.784;2024-01-06T06:51:40;5.90;99.90
6256;DHT22;3161;48.794;9.784;2024-01-06T06:54:10;5.90;99.90
6256;DHT22;3161;48.794;9.784;2024-01-06T06:56:37;5.90;99.90
6256;DHT22;3161;48.794;9.784;2024-01-06T06:59:05;5.90;99.90
6256;DHT22;3161;48.794;9.784;2024-01-06T07:01:32;5.90;99.90
6256;DHT22;3161;48.794;9.784;2024-01-06T07:04:01;5.90;99.90
6256;DHT22;3161;48.794;9.784;2024-01-06T07:06:29;5.90;99.90
6256;DHT22;3161;48.794;9.784;2024-01-06T07:08:57;5.90;99.90
6256;DHT22;3161;48.794;9.784;2024-01-06T07:11:25;5.90;99.90
6256;DHT22;3161;48.794;9.784;2024-01-06T07:13:54;5.90;99.90
6256;DHT22;3161;48.794;9.784;2024-01-06T07:16:21;5.90;99.90
6256;DHT22;3161;48.794;9.784;2024-01-06T07:18:49;5.90;99.90
6256;DHT22;3161;48.794;9.784;2024-01-06T07:21:16;5.90;99.90
6256;DHT22;3161;48.794;9.784;2024-01-06T07:23:44;5.90;99.90
6256;DHT22;3161;48.794;9.784;2024-01-06T07:26:11;5.90;99.90
6256;DHT22;3161;48.794;9.784;2024-01-06T07:28:38;5.90;99.90
6256;DHT22;3161;48.794;9.784;2024-01-06T07:31:06;5.90;99.90
6256;DHT22;3161;48.794;9.784;2024-01-06T07:33:33;5.90;99.90
6256;DHT22;3161;48.794;9.784;2024-01-06T07:36:01;5.90;99.90
6256;DHT22;3161;48.794;9.784;2024-01-06T07:38:29;5.90;99.90
6256;DHT22;3161;48.794;9.784;2024-01-06T07:40:57;5.90;99.90
6256;DHT22;3161;48.794;9.784;2024-01-06T07:43:25;6.10;99.90
6256;DHT22;3161;48.794;9.784;2024-01-06T07:45:52;5.90;99.90
6256;DHT22;3161;48.794;9.784;2024-01-06T07:48:20;5.90;99.90
6256;DHT22;3161;48.794;9.784;2024-01-06T07:50:47;5.90;99.90
6256;DHT22;3161;48.794;9.784;2024-01-06T07:53:15;5.90;99.90
6256;DHT22;3161;48.794;9.784;2024-01-06T07:55:42;5.80;99.90
6256;DHT22;3161;48.794;9.784;2024-01-06T07:58:10;5.90;99.90
6256;DHT22;3161;48.794;9.784;2024-01-06T08:00:38;5.90;99.90
6256;DHT22;3161;48.794;9.784;2024-01-06T08:03:05;5.90;99.90
6256;DHT22;3161;48.794;9.784;2024-01-06T08:05:33;5.90;99.90
6256;DHT22;3161;48.794;9.784;2024-01-06T08:08:01;5.90;99.90
6256;DHT22;3161;48.794;9.784;2024-01-06T08:10:28;5.90;99.90
6256;DHT22;3161;48.794;9.784;2024-01-06T08:12:56;5.90;99.90
6256;DHT22;3161;48.794;9.784;2024-01-06T08:15:23;5.90;99.90
6256;DHT22;3161;48.794;9.784;2024-01-06T08:17:51;6.00;99.90
6256;DHT22;3161;48.794;9.784;2024-01-06T08:20:19;6.00;99.90
6256;DHT22;3161;48.794;9.784;2024-01-06T08:22:47;6.00;99.90
6256;DHT22;3161;48.794;9.784;2024-01-06T08:25:14;6.00;99.90
6256;DHT22;3161;48.794;9.784;2024-01-06T08:27:44;6.10;99.90
6256;DHT22;3161;48.794;9.784;2024-01-06T08:30:12;6.10;99.90
6256;DHT22;3161;48.794;9.784;2024-01-06T08:32:39;6.10;99.90
6256;DHT22;3161;48.794;9.784;2024-01-06T08:35:08;6.10;99.90
6256;DHT22;3161;48.794;9.784;2024-01-06T08:37:35;6.10;99.90
6256;DHT22;3161;48.794;9.784;2024-01-06T08:40:03;6.10;99.90
6256;DHT22;3161;48.794;9.784;2024-01-06T08:42:31;6.10;99.90
6256;DHT22;3161;48.794;9.784;2024-01-06T08:44:58;6.20;99.90
6256;DHT22;3161;48.794;9.784;2024-01-06T08:47:26;6.20;99.90
6256;DHT22;3161;48.794;9.784;2024-01-06T08:49:53;6.20;99.90
6256;DHT22;3161;48.794;9.784;2024-01-06T08:52:21;6.20;99.90
6256;DHT22;3161;48.794;9.784;2024-01-06T08:54:49;6.20;99.90
6256;DHT22;3161;48.794;9.784;2024-01-06T08:57:16;6.30;99.90
6256;DHT22;3161;48.794;9.784;2024-01-06T08:59:44;6.30;99.90
6256;DHT22;3161;48.794;9.784;2024-01-06T09:02:12;6.30;99.90
6256;DHT22;3161;48.794;9.784;2024-01-06T09:04:39;6.40;99.90
6256;DHT22;3161;48.794;9.784;2024-01-06T09:07:07;6.40;99.90
6256;DHT22;3161;48.794;9.784;2024-01-06T09:09:35;6.40;99.90
6256;DHT22;3161;48.794;9.784;2024-01-06T09:12:02;6.50;99.90
6256;DHT22;3161;48.794;9.784;2024-01-06T09:14:30;6.50;99.90
6256;DHT22;3161;48.794;9.784;2024-01-06T09:16:58;6.50;99.90
6256;DHT22;3161;48.794;9.784;2024-01-06T09:19:25;6.50;99.90
6256;DHT22;3161;48.794;9.784;2024-01-06T09:21:55;6.50;99.90
6256;DHT22;3161;48.794;9.784;2024-01-06T09:24:22;6.50;99.90
6256;DHT22;3161;48.794;9.784;2024-01-06T09:26:50;6.60;99.90
6256;DHT22;3161;48.794;9.784;2024-01-06T09:29:19;6.50;99.90
6256;DHT22;3161;48.794;9.784;2024-01-06T09:31:47;6.60;99.90
6256;DHT22;3161;48.794;9.784;2024-01-06T09:34:15;6.60;99.90
6256;DHT22;3161;48.794;9.784;2024-01-06T09:36:42;6.60;99.90
6256;DHT22;3161;48.794;9.784;2024-01-06T09:39:10;6.70;99.90
6256;DHT22;3161;48.794;9.784;2024-01-06T09:41:37;6.70;99.90
6256;DHT22;3161;48.794;9.784;2024-01-06T09:44:05;6.70;99.90
6256;DHT22;3161;48.794;9.784;2024-01-06T09:46:33;6.70;99.90
6256;DHT22;3161;48.794;9.784;2024-01-06T09:49:03;6.70;99.90
6256;DHT22;3161;48.794;9.784;2024-01-06T09:51:31;6.80;99.90
6256;DHT22;3161;48.794;9.784;2024-01-06T09:54:01;6.80;99.90
6256;DHT22;3161;48.794;9.784;2024-01-06T09:56:29;6.80;99.90
6256;DHT22;3161;48.794;9.784;2024-01-06T09:58:57;6.80;99.90
6256;DHT22;3161;48.794;9.784;2024-01-06T10:01:24;6.80;99.90
6256;DHT22;3161;48.794;9.784;2024-01-06T10:03:52;6.70;99.90
6256;DHT22;3161;48.794;9.784;2024-01-06T10:06:20;6.80;99.90
6256;DHT22;3161;48.794;9.784;2024-01-06T10:08:52;6.80;99.90
6256;DHT22;3161;48.794;9.784;2024-01-06T10:11:21;6.80;99.90
6256;DHT22;3161;48.794;9.784;2024-01-06T10:13:50;6.80;99.90
6256;DHT22;3161;48.794;9.784;2024-01-06T10:16:18;6.70;99.90
6256;DHT22;3161;48.794;9.784;2024-01-06T10:18:46;6.70;99.90
6256;DHT22;3161;48.794;9.784;2024-01-06T10:21:14;6.70;99.90
6256;DHT22;3161;48.794;9.784;2024-01-06T10:23:43;6.70;99.90
6256;DHT22;3161;48.794;9.784;2024-01-06T10:26:15;6.70;99.90
6256;DHT22;3161;48.794;9.784;2024-01-06T10:28:44;6.70;99.90
6256;DHT22;3161;48.794;9.784;2024-01-06T10:31:11;6.80;99.90
6256;DHT22;3161;48.794;9.784;2024-01-06T10:33:40;6.90;99.90
6256;DHT22;3161;48.794;9.784;2024-01-06T10:36:08;7.00;99.90
6256;DHT22;3161;48.794;9.784;2024-01-06T10:38:36;7.10;99.90
6256;DHT22;3161;48.794;9.784;2024-01-06T10:41:04;7.20;99.90
6256;DHT22;3161;48.794;9.784;2024-01-06T10:43:35;7.40;99.90
6256;DHT22;3161;48.794;9.784;2024-01-06T10:46:03;7.50;99.90
6256;DHT22;3161;48.794;9.784;2024-01-06T10:48:32;7.60;99.90
6256;DHT22;3161;48.794;9.784;2024-01-06T10:51:02;7.70;99.90
6256;DHT22;3161;48.794;9.784;2024-01-06T10:53:32;7.70;99.90
6256;DHT22;3161;48.794;9.784;2024-01-06T10:56:00;7.70;99.90
6256;DHT22;3161;48.794;9.784;2024-01-06T10:58:29;7.90;99.90
6256;DHT22;3161;48.794;9.784;2024-01-06T11:00:57;7.90;99.90
6256;DHT22;3161;48.794;9.784;2024-01-06T11:03:25;8.00;99.90
6256;DHT22;3161;48.794;9.784;2024-01-06T11:05:54;8.00;99.90
6256;DHT22;3161;48.794;9.784;2024-01-06T11:08:22;8.00;99.90
6256;DHT22;3161;48.794;9.784;2024-01-06T11:10:51;7.90;99.90
6256;DHT22;3161;48.794;9.784;2024-01-06T11:13:23;7.80;99.90
6256;DHT22;3161;48.794;9.784;2024-01-06T11:15:52;7.90;99.90
6256;DHT22;3161;48.794;9.784;2024-01-06T11:18:35;7.80;99.90
6256;DHT22;3161;48.794;9.784;2024-01-06T11:21:17;7.80;99.90
6256;DHT22;3161;48.794;9.784;2024-01-06T11:24:15;7.80;99.90
6256;DHT22;3161;48.794;9.784;2024-01-06T11:26:52;7.60;99.90
6256;DHT22;3161;48.794;9.784;2024-01-06T11:29:20;7.50;99.90
6256;DHT22;3161;48.794;9.784;2024-01-06T11:32:16;7.50;99.90
6256;DHT22;3161;48.794;9.784;2024-01-06T11:34:47;7.50;99.90
6256;DHT22;3161;48.794;9.784;2024-01-06T11:37:17;7.40;99.90
6256;DHT22;3161;48.794;9.784;2024-01-06T11:39:45;7.30;99.90
6256;DHT22;3161;48.794;9.784;2024-01-06T11:42:15;7.40;99.90
6256;DHT22;3161;48.794;9.784;2024-01-06T11:44:49;7.40;99.90
6256;DHT22;3161;48.794;9.784;2024-01-06T11:47:16;7.40;99.90
6256;DHT22;3161;48.794;9.784;2024-01-06T11:49:46;7.30;99.90
6256;DHT22;3161;48.794;9.784;2024-01-06T11:52:14;7.40;99.90
6256;DHT22;3161;48.794;9.784;2024-01-06T11:54:42;7.30;99.90
6256;DHT22;3161;48.794;9.784;2024-01-06T11:57:10;7.30;99.90
6256;DHT22;3161;48.794;9.784;2024-01-06T11:59:37;7.30;99.90
6256;DHT22;3161;48.794;9.784;2024-01-06T12:02:10;7.20;99.90
6256;DHT22;3161;48.794;9.784;2024-01-06T12:04:35;7.20;99.90
6256;DHT22;3161;48.794;9.784;2024-01-06T12:07:09;7.20;99.90
6256;DHT22;3161;48.794;9.784;2024-01-06T12:09:38;7.20;99.90
6256;DHT22;3161;48.794;9.784;2024-01-06T12:12:07;7.10;99.90
6256;DHT22;3161;48.794;9.784;2024-01-06T12:14:37;7.20;99.90
6256;DHT22;3161;48.794;9.784;2024-01-06T12:17:04;7.20;99.90
6256;DHT22;3161;48.794;9.784;2024-01-06T12:19:33;7.20;99.90
6256;DHT22;3161;48.794;9.784;2024-01-06T12:22:01;7.10;99.90
6256;DHT22;3161;48.794;9.784;2024-01-06T12:24:29;7.10;99.90
6256;DHT22;3161;48.794;9.784;2024-01-06T12:26:57;7.10;99.90
6256;DHT22;3161;48.794;9.784;2024-01-06T12:29:28;7.10;99.90
6256;DHT22;3161;48.794;9.784;2024-01-06T12:31:56;7.10;99.90
6256;DHT22;3161;48.794;9.784;2024-01-06T12:34:25;7.00;99.90
6256;DHT22;3161;48.794;9.784;2024-01-06T12:36:54;7.00;99.90
6256;DHT22;3161;48.794;9.784;2024-01-06T12:39:29;7.00;99.90
6256;DHT22;3161;48.794;9.784;2024-01-06T12:41:57;7.00;99.90
6256;DHT22;3161;48.794;9.784;2024-01-06T12:44:26;7.00;99.90
6256;DHT22;3161;48.794;9.784;2024-01-06T12:46:54;7.00;99.90
6256;DHT22;3161;48.794;9.784;2024-01-06T12:49:22;7.00;99.90
6256;DHT22;3161;48.794;9.784;2024-01-06T12:51:50;7.00;99.90
6256;DHT22;3161;48.794;9.784;2024-01-06T12:54:18;7.00;99.90
6256;DHT22;3161;48.794;9.784;2024-01-06T12:56:45;7.00;99.90
6256;DHT22;3161;48.794;9.784;2024-01-06T12:59:13;7.00;99.90
6256;DHT22;3161;48.794;9.784;2024-01-06T13:01:41;7.00;99.90
6256;DHT22;3161;48.794;9.784;2024-01-06T13:04:09;7.10;99.90
6256;DHT22;3161;48.794;9.784;2024-01-06T13:06:37;7.00;99.90
6256;DHT22;3161;48.794;9.784;2024-01-06T13:09:06;7.00;99.90
6256;DHT22;3161;48.794;9.784;2024-01-06T13:11:36;7.00;99.90
6256;DHT22;3161;48.794;9.784;2024-01-06T13:14:03;7.10;99.90
6256;DHT22;3161;48.794;9.784;2024-01-06T13:16:31;7.10;99.90
6256;DHT22;3161;48.794;9.784;2024-01-06T13:18:58;7.10;99.90
6256;DHT22;3161;48.794;9.784;2024-01-06T13:21:26;7.00;99.90
6256;DHT22;3161;48.794;9.784;2024-01-06T13:23:55;7.00;99.90
6256;DHT22;3161;48.794;9.784;2024-01-06T13:26:25;7.00;99.90
6256;DHT22;3161;48.794;9.784;2024-01-06T13:28:52;7.00;99.90
6256;DHT22;3161;48.794;9.784;2024-01-06T13:31:20;7.00;99.90
6256;DHT22;3161;48.794;9.784;2024-01-06T13:33:47;7.00;99.90
6256;DHT22;3161;48.794;9.784;2024-01-06T13:36:15;7.00;99.90
6256;DHT22;3161;48.794;9.784;2024-01-06T13:38:44;7.00;99.90
6256;DHT22;3161;48.794;9.784;2024-01-06T13:41:12;7.00;99.90
6256;DHT22;3161;48.794;9.784;2024-01-06T13:43:39;7.00;99.90
6256;DHT22;3161;48.794;9.784;2024-01-06T13:46:07;7.00;99.90
6256;DHT22;3161;48.794;9.784;2024-01-06T13:48:35;7.00;99.90
6256;DHT22;3161;48.794;9.784;2024-01-06T13:51:02;7.00;99.90
6256;DHT22;3161;48.794;9.784;2024-01-06T13:53:30;7.00;99.90
6256;DHT22;3161;48.794;9.784;2024-01-06T13:55:57;7.00;99.90
6256;DHT22;3161;48.794;9.784;2024-01-06T13:58:25;7.00;99.90
6256;DHT22;3161;48.794;9.784;2024-01-06T14:00:54;7.00;99.90
6256;DHT22;3161;48.794;9.784;2024-01-06T14:03:22;7.00;99.90
6256;DHT22;3161;48.794;9.784;2024-01-06T14:05:49;6.90;99.90
6256;DHT22;3161;48.794;9.784;2024-01-06T14:08:19;6.90;99.90
6256;DHT22;3161;48.794;9.784;2024-01-06T14:10:46;6.90;99.90
6256;DHT22;3161;48.794;9.784;2024-01-06T14:13:14;7.00;99.90
6256;DHT22;3161;48.794;9.784;2024-01-06T14:15:41;7.00;99.90
6256;DHT22;3161;48.794;9.784;2024-01-06T14:18:10;7.00;99.90
6256;DHT22;3161;48.794;9.784;2024-01-06T14:20:38;6.90;99.90
6256;DHT22;3161;48.794;9.784;2024-01-06T14:23:07;6.90;99.90
6256;DHT22;3161;48.794;9.784;2024-01-06T14:25:36;6.90;99.90
6256;DHT22;3161;48.794;9.784;2024-01-06T14:28:04;6.90;99.90
6256;DHT22;3161;48.794;9.784;2024-01-06T14:30:32;7.00;99.90
6256;DHT22;3161;48.794;9.784;2024-01-06T14:33:00;7.00;99.90
6256;DHT22;3161;48.794;9.784;2024-01-06T14:35:27;7.00;99.90
6256;DHT22;3161;48.794;9.784;2024-01-06T14:37:55;7.00;99.90
6256;DHT22;3161;48.794;9.784;2024-01-06T14:40:23;7.00;99.90
6256;DHT22;3161;48.794;9.784;2024-01-06T14:42:51;7.00;99.90
6256;DHT22;3161;48.794;9.784;2024-01-06T14:45:18;7.00;99.90
6256;DHT22;3161;48.794;9.784;2024-01-06T14:47:46;7.00;99.90
6256;DHT22;3161;48.794;9.784;2024-01-06T14:50:13;7.00;99.90
6256;DHT22;3161;48.794;9.784;2024-01-06T14:52:41;7.00;99.90
6256;DHT22;3161;48.794;9.784;2024-01-06T14:55:09;7.00;99.90
6256;DHT22;3161;48.794;9.784;2024-01-06T14:57:36;6.90;99.90
6256;DHT22;3161;48.794;9.784;2024-01-06T15:00:06;6.90;99.90
6256;DHT22;3161;48.794;9.784;2024-01-06T15:02:36;6.90;99.90
6256;DHT22;3161;48.794;9.784;2024-01-06T15:05:04;6.90;99.90
6256;DHT22;3161;48.794;9.784;2024-01-06T15:07:32;6.90;99.90
6256;DHT22;3161;48.794;9.784;2024-01-06T15:10:01;6.90;99.90
6256;DHT22;3161;48.794;9.784;2024-01-06T15:12:28;6.90;99.90
6256;DHT22;3161;48.794;9.784;2024-01-06T15:14:56;6.90;99.90
6256;DHT22;3161;48.794;9.784;2024-01-06T15:17:25;6.90;99.90
6256;DHT22;3161;48.794;9.784;2024-01-06T15:19:52;6.90;99.90
6256;DHT22;3161;48.794;9.784;2024-01-06T15:22:20;6.80;99.90
6256;DHT22;3161;48.794;9.784;2024-01-06T15:24:49;6.80;99.90
6256;DHT22;3161;48.794;9.784;2024-01-06T15:27:17;6.80;99.90
6256;DHT22;3161;48.794;9.784;2024-01-06T15:29:45;6.80;99.90
6256;DHT22;3161;48.794;9.784;2024-01-06T15:32:12;6.80;99.90
6256;DHT22;3161;48.794;9.784;2024-01-06T15:34:40;6.80;99.90
6256;DHT22;3161;48.794;9.784;2024-01-06T15:37:07;6.80;99.90
6256;DHT22;3161;48.794;9.784;2024-01-06T15:39:35;6.80;99.90
6256;DHT22;3161;48.794;9.784;2024-01-06T15:42:03;6.80;99.90
6256;DHT22;3161;48.794;9.784;2024-01-06T15:44:30;6.80;99.90
6256;DHT22;3161;48.794;9.784;2024-01-06T15:47:00;6.70;99.90
6256;DHT22;3161;48.794;9.784;2024-01-06T15:49:28;6.80;99.90
6256;DHT22;3161;48.794;9.784;2024-01-06T15:51:55;6.70;99.90
6256;DHT22;3161;48.794;9.784;2024-01-06T15:54:24;6.70;99.90
6256;DHT22;3161;48.794;9.784;2024-01-06T15:56:51;6.70;99.90
6256;DHT22;3161;48.794;9.784;2024-01-06T15:59:19;6.70;99.90
6256;DHT22;3161;48.794;9.784;2024-01-06T16:01:46;6.70;99.90
6256;DHT22;3161;48.794;9.784;2024-01-06T16:04:15;6.70;99.90
6256;DHT22;3161;48.794;9.784;2024-01-06T16:06:43;6.70;99.90
6256;DHT22;3161;48.794;9.784;2024-01-06T16:09:12;6.70;99.90
6256;DHT22;3161;48.794;9.784;2024-01-06T16:11:40;6.70;99.90
6256;DHT22;3161;48.794;9.784;2024-01-06T16:14:08;6.70;99.90
6256;DHT22;3161;48.794;9.784;2024-01-06T16:16:35;6.70;99.90
6256;DHT22;3161;48.794;9.784;2024-01-06T16:19:03;6.70;99.90
6256;DHT22;3161;48.794;9.784;2024-01-06T16:21:30;6.70;99.90